createdAt,value
2023-02-28T00:01:06.027Z,9.20
2023-02-28T00:03:08.338Z,9.60
2023-02-28T00:05:12.269Z,9.57
2023-02-28T00:07:14.393Z,11.33
2023-02-28T00:09:16.535Z,6.83
2023-02-28T00:11:18.791Z,7.20
2023-02-28T00:13:20.992Z,6.00
2023-02-28T00:15:24.154Z,7.43
2023-02-28T00:17:26.333Z,9.73
2023-02-28T00:19:28.515Z,8.27
2023-02-28T00:21:30.985Z,7.27
2023-02-28T00:23:33.428Z,7.63
2023-02-28T00:25:35.687Z,6.73
2023-02-28T00:27:38.684Z,7.43
2023-02-28T00:29:41.129Z,7.50
2023-02-28T00:31:43.314Z,8.77
2023-02-28T00:33:47.097Z,9.60
2023-02-28T00:35:50.461Z,6.40
2023-02-28T00:37:52.705Z,6.07
2023-02-28T00:39:54.979Z,6.37
2023-02-28T00:41:58.114Z,6.53
2023-02-28T00:44:00.321Z,6.23
2023-02-28T00:46:03.332Z,6.43
2023-02-28T00:48:06.324Z,6.00
2023-02-28T00:50:09.749Z,5.93
2023-02-28T00:52:12.780Z,6.27
2023-02-28T00:54:14.921Z,6.80
2023-02-28T00:56:17.081Z,5.80
2023-02-28T00:58:19.597Z,7.00
2023-02-28T01:00:21.899Z,7.90
2023-02-28T01:02:26.088Z,7.23
2023-02-28T01:04:28.767Z,5.00
2023-02-28T01:06:30.946Z,5.77
2023-02-28T01:08:33.115Z,6.40
2023-02-28T01:10:37.475Z,4.50
2023-02-28T01:12:39.733Z,4.57
2023-02-28T01:14:41.999Z,5.40
2023-02-28T01:16:44.806Z,6.37
2023-02-28T01:18:46.932Z,4.60
2023-02-28T01:20:50.034Z,5.30
2023-02-28T01:22:52.350Z,5.60
2023-02-28T01:24:55.072Z,6.70
2023-02-28T01:26:57.458Z,4.77
2023-02-28T01:28:59.784Z,4.93
2023-02-28T01:31:02.182Z,5.40
2023-02-28T01:33:04.488Z,6.93
2023-02-28T01:35:06.953Z,6.50
2023-02-28T01:37:09.217Z,6.37
2023-02-28T01:39:11.388Z,4.60
2023-02-28T01:41:19.884Z,4.60
2023-02-28T01:43:26.676Z,4.57
2023-02-28T01:45:31.839Z,6.97
2023-02-28T01:47:42.540Z,5.17
2023-02-28T01:49:45.033Z,6.83
2023-02-28T01:51:54.069Z,6.73
2023-02-28T01:54:00.961Z,5.10
2023-02-28T01:56:05.211Z,6.87
2023-02-28T01:58:10.033Z,5.07
2023-02-28T02:00:16.147Z,6.93
2023-02-28T02:02:24.673Z,6.33
2023-02-28T02:04:31.749Z,5.73
2023-02-28T02:06:44.484Z,6.10
2023-02-28T02:08:46.667Z,5.90
2023-02-28T02:10:55.096Z,7.10
2023-02-28T02:13:25.771Z,7.93
2023-02-28T02:15:33.673Z,8.53
2023-02-28T02:17:40.941Z,4.80
2023-02-28T02:20:05.876Z,8.80
2023-02-28T02:22:08.038Z,5.60
2023-02-28T02:24:36.256Z,6.00
2023-02-28T02:26:56.828Z,7.73
2023-02-28T02:29:32.058Z,6.20
2023-02-28T02:31:48.899Z,5.50
2023-02-28T02:34:06.697Z,5.87
2023-02-28T02:36:34.232Z,6.50
2023-02-28T02:39:09.167Z,12.40
2023-02-28T02:41:17.558Z,6.27
2023-02-28T02:43:26.704Z,6.10
2023-02-28T02:45:50.888Z,6.53
2023-02-28T02:47:53.160Z,5.80
2023-02-28T02:49:57.432Z,5.30
2023-02-28T02:52:04.865Z,6.50
2023-02-28T02:54:18.705Z,5.37
2023-02-28T02:56:22.721Z,5.27
2023-02-28T02:58:29.327Z,6.43
2023-02-28T03:00:35.671Z,5.90
2023-02-28T03:02:39.221Z,7.20
2023-02-28T03:04:52.976Z,10.13
2023-02-28T03:06:57.180Z,6.67
2023-02-28T03:09:01.053Z,7.10
2023-02-28T03:11:13.326Z,6.70
2023-02-28T03:13:26.252Z,5.60
2023-02-28T03:15:34.397Z,5.80
2023-02-28T03:17:59.658Z,5.87
2023-02-28T03:20:33.587Z,5.07
2023-02-28T03:23:02.675Z,7.03
2023-02-28T03:25:10.232Z,5.33
2023-02-28T03:27:25.827Z,4.80
2023-02-28T03:29:44.727Z,6.37
2023-02-28T03:31:56.721Z,4.50
2023-02-28T03:34:04.415Z,6.10
2023-02-28T03:36:13.452Z,5.40
2023-02-28T03:38:21.310Z,4.67
2023-02-28T03:40:27.034Z,4.40
2023-02-28T03:42:31.077Z,4.47
2023-02-28T03:44:43.753Z,4.93
2023-02-28T03:47:03.784Z,6.03
2023-02-28T03:49:14.056Z,4.10
2023-02-28T03:51:20.403Z,4.67
2023-02-28T03:53:24.256Z,5.00
2023-02-28T03:55:26.521Z,4.70
2023-02-28T03:57:39.164Z,5.20
2023-02-28T03:59:45.659Z,4.70
2023-02-28T04:01:49.816Z,6.10
2023-02-28T04:03:52.464Z,5.63
2023-02-28T04:05:56.546Z,4.73
2023-02-28T04:08:08.964Z,4.90
2023-02-28T04:10:12.634Z,6.70
2023-02-28T04:12:14.866Z,5.27
2023-02-28T04:14:17.049Z,5.50
2023-02-28T04:16:33.884Z,5.67
2023-02-28T04:18:36.995Z,4.93
2023-02-28T04:20:39.179Z,4.90
2023-02-28T04:22:41.360Z,5.03
2023-02-28T04:24:43.897Z,6.80
2023-02-28T04:26:48.412Z,6.20
2023-02-28T04:28:50.531Z,5.23
2023-02-28T04:30:59.989Z,4.47
2023-02-28T04:33:02.201Z,6.27
2023-02-28T04:35:04.876Z,4.80
2023-02-28T04:37:13.218Z,6.00
2023-02-28T04:39:18.198Z,4.43
2023-02-28T04:41:20.792Z,5.23
2023-02-28T04:43:22.992Z,6.27
2023-02-28T04:45:25.796Z,6.00
2023-02-28T04:47:28.063Z,7.23
2023-02-28T04:49:30.249Z,9.23
2023-02-28T04:51:32.424Z,5.40
2023-02-28T04:53:34.909Z,5.07
2023-02-28T04:55:37.071Z,4.80
2023-02-28T04:57:39.224Z,5.23
2023-02-28T04:59:41.505Z,5.30
2023-02-28T05:01:47.097Z,7.30
2023-02-28T05:03:49.992Z,5.43
2023-02-28T05:05:52.158Z,5.13
2023-02-28T05:07:54.628Z,4.40
2023-02-28T05:09:56.828Z,7.00
2023-02-28T05:11:59.107Z,5.90
2023-02-28T05:14:02.956Z,5.70
2023-02-28T05:16:05.444Z,5.43
2023-02-28T05:18:09.652Z,5.13
2023-02-28T05:20:15.726Z,8.50
2023-02-28T05:22:18.382Z,4.90
2023-02-28T05:24:23.697Z,5.20
2023-02-28T05:26:27.014Z,7.10
2023-02-28T05:28:29.142Z,7.90
2023-02-28T05:30:32.638Z,6.70
2023-02-28T05:32:34.764Z,4.97
2023-02-28T05:34:37.708Z,5.00
2023-02-28T05:36:40.611Z,5.93
2023-02-28T05:38:42.774Z,6.33
2023-02-28T05:40:44.968Z,6.80
2023-02-28T05:42:47.734Z,7.50
2023-02-28T05:44:50.058Z,5.97
2023-02-28T05:46:52.170Z,6.93
2023-02-28T05:48:54.409Z,5.47
2023-02-28T05:50:58.575Z,5.23
2023-02-28T05:53:00.683Z,6.60
2023-02-28T05:55:02.824Z,6.00
2023-02-28T05:57:12.629Z,5.97
2023-02-28T05:59:17.726Z,6.27
2023-02-28T06:01:37.680Z,7.47
2023-02-28T06:03:40.046Z,7.80
2023-02-28T06:05:42.463Z,8.37
2023-02-28T06:07:45.327Z,5.83
2023-02-28T06:09:47.442Z,7.07
2023-02-28T06:11:49.775Z,7.43
2023-02-28T06:13:55.469Z,12.90
2023-02-28T06:15:57.597Z,5.83
2023-02-28T06:17:59.821Z,5.47
2023-02-28T06:20:01.996Z,5.30
2023-02-28T06:22:04.241Z,6.00
2023-02-28T06:24:06.806Z,6.47
2023-02-28T06:26:08.965Z,6.50
2023-02-28T06:28:11.087Z,7.37
2023-02-28T06:30:13.666Z,6.93
2023-02-28T06:32:15.864Z,5.50
2023-02-28T06:34:18.172Z,6.90
2023-02-28T06:36:20.941Z,5.87
2023-02-28T06:38:23.115Z,5.70
2023-02-28T06:40:25.299Z,5.20
2023-02-28T06:42:29.737Z,5.47
2023-02-28T06:44:36.202Z,6.60
2023-02-28T06:46:40.441Z,8.10
2023-02-28T06:48:45.223Z,7.70
2023-02-28T06:50:47.971Z,6.50
2023-02-28T06:52:54.930Z,5.80
2023-02-28T06:55:00.871Z,4.90
2023-02-28T06:57:03.101Z,5.10
2023-02-28T06:59:05.617Z,11.63
2023-02-28T07:01:08.981Z,5.60
2023-02-28T07:03:12.399Z,8.57
2023-02-28T07:05:14.607Z,5.87
2023-02-28T07:07:16.739Z,5.33
2023-02-28T07:09:20.188Z,9.73
2023-02-28T07:11:24.068Z,6.63
2023-02-28T07:13:26.385Z,13.50
2023-02-28T07:15:28.562Z,10.27
2023-02-28T07:17:30.928Z,5.93
2023-02-28T07:19:33.082Z,9.40
2023-02-28T07:21:35.492Z,6.80
2023-02-28T07:23:41.854Z,8.60
2023-02-28T07:25:43.914Z,5.83
2023-02-28T07:27:45.932Z,8.23
2023-02-28T07:29:48.125Z,7.30
2023-02-28T07:31:51.732Z,7.60
2023-02-28T07:33:54.966Z,6.37
2023-02-28T07:36:02.707Z,4.93
2023-02-28T07:38:05.048Z,5.40
2023-02-28T07:40:09.493Z,5.70
2023-02-28T07:42:12.927Z,6.93
2023-02-28T07:44:15.263Z,4.23
2023-02-28T07:46:17.895Z,4.87
2023-02-28T07:48:19.948Z,5.30
2023-02-28T07:50:22.350Z,13.23
2023-02-28T07:52:24.949Z,5.00
2023-02-28T07:54:26.980Z,9.47
2023-02-28T07:56:29.364Z,9.40
2023-02-28T07:58:34.550Z,13.03
2023-02-28T08:00:36.951Z,10.03
2023-02-28T08:02:39.505Z,6.80
2023-02-28T08:04:41.834Z,5.50
2023-02-28T08:06:43.848Z,7.77
2023-02-28T08:08:46.109Z,8.13
2023-02-28T08:10:48.211Z,7.33
2023-02-28T08:12:50.406Z,10.80
2023-02-28T08:14:52.378Z,7.90
2023-02-28T08:16:55.417Z,4.00
2023-02-28T08:18:57.427Z,4.67
2023-02-28T08:21:00.210Z,5.27
2023-02-28T08:23:02.332Z,4.73
2023-02-28T08:25:04.788Z,4.80
2023-02-28T08:27:06.748Z,6.70
2023-02-28T08:29:08.752Z,5.90
2023-02-28T08:31:11.986Z,6.07
2023-02-28T08:33:14.092Z,7.13
2023-02-28T08:35:16.125Z,6.27
2023-02-28T08:37:18.194Z,4.73
2023-02-28T08:39:21.065Z,7.30
2023-02-28T08:41:23.049Z,6.10
2023-02-28T08:43:25.094Z,4.77
2023-02-28T08:45:27.118Z,4.43
2023-02-28T08:47:29.164Z,4.57
2023-02-28T08:49:31.176Z,6.00
2023-02-28T08:51:33.431Z,7.50
2023-02-28T08:53:39.436Z,5.90
2023-02-28T08:55:41.500Z,6.57
2023-02-28T08:57:43.562Z,6.50
2023-02-28T08:59:45.647Z,5.47
2023-02-28T09:01:47.743Z,6.33
2023-02-28T09:03:51.040Z,6.53
2023-02-28T09:06:00.612Z,10.50
2023-02-28T09:08:02.580Z,4.47
2023-02-28T09:10:05.456Z,8.90
2023-02-28T09:12:07.782Z,8.67
2023-02-28T09:14:09.866Z,4.63
2023-02-28T09:16:14.947Z,5.70
2023-02-28T09:18:17.235Z,6.13
2023-02-28T09:20:19.271Z,4.37
2023-02-28T09:22:21.539Z,3.60
2023-02-28T09:24:23.738Z,5.87
2023-02-28T09:26:34.632Z,5.17
2023-02-28T09:28:41.029Z,6.10
2023-02-28T09:30:43.668Z,6.03
2023-02-28T09:32:52.985Z,4.07
2023-02-28T09:34:55.279Z,4.73
2023-02-28T09:36:57.468Z,4.43
2023-02-28T09:38:59.460Z,7.70
2023-02-28T09:41:19.451Z,9.30
2023-02-28T09:43:24.418Z,6.20
2023-02-28T09:45:31.662Z,6.33
2023-02-28T09:47:42.392Z,5.70
2023-02-28T09:49:48.738Z,6.67
2023-02-28T09:52:04.161Z,7.30
2023-02-28T09:54:06.347Z,5.53
2023-02-28T09:56:27.164Z,7.23
2023-02-28T09:58:59.546Z,6.80
2023-02-28T10:01:10.828Z,8.23
2023-02-28T10:03:25.143Z,9.40
2023-02-28T10:05:34.450Z,7.27
2023-02-28T10:08:00.227Z,5.80
2023-02-28T10:10:05.638Z,4.80
2023-02-28T10:12:10.697Z,13.53
2023-02-28T10:14:27.498Z,4.47
2023-02-28T10:16:48.821Z,3.63
2023-02-28T10:19:07.034Z,5.07
2023-02-28T10:21:19.455Z,3.90
2023-02-28T10:23:29.983Z,3.97
2023-02-28T10:25:32.304Z,5.20
2023-02-28T10:27:34.326Z,4.37
2023-02-28T10:29:36.682Z,4.60
2023-02-28T10:31:39.699Z,4.70
2023-02-28T10:33:41.763Z,4.57
2023-02-28T10:35:43.768Z,4.73
2023-02-28T10:37:51.126Z,4.80
2023-02-28T10:39:53.107Z,6.30
2023-02-28T10:41:56.420Z,5.77
2023-02-28T10:44:21.551Z,5.03
2023-02-28T10:46:27.070Z,4.80
2023-02-28T10:48:45.771Z,6.70
2023-02-28T10:50:50.857Z,4.27
2023-02-28T10:52:54.327Z,7.37
2023-02-28T10:55:21.902Z,4.90
2023-02-28T10:57:25.553Z,5.17
2023-02-28T10:59:32.122Z,7.27
2023-02-28T11:01:43.210Z,4.47
2023-02-28T11:03:45.770Z,5.40
2023-02-28T11:05:48.832Z,5.30
2023-02-28T11:08:00.825Z,4.50
2023-02-28T11:10:05.255Z,6.30
2023-02-28T11:12:11.695Z,5.30
2023-02-28T11:14:27.458Z,7.37
2023-02-28T11:16:38.523Z,7.90
2023-02-28T11:18:45.081Z,5.10
2023-02-28T11:20:51.461Z,6.50
2023-02-28T11:22:55.916Z,4.93
2023-02-28T11:25:01.325Z,6.77
2023-02-28T11:27:03.565Z,5.50
2023-02-28T11:29:23.644Z,7.40
2023-02-28T11:31:27.142Z,6.73
2023-02-28T11:33:31.402Z,6.77
2023-02-28T11:35:36.992Z,6.10
2023-02-28T11:37:41.591Z,8.33
2023-02-28T11:39:44.476Z,7.50
2023-02-28T11:42:03.145Z,7.07
2023-02-28T11:44:07.184Z,7.60
2023-02-28T11:46:24.957Z,6.03
2023-02-28T11:48:45.047Z,5.90
2023-02-28T11:50:53.127Z,8.13
2023-02-28T11:53:01.574Z,5.37
2023-02-28T11:55:26.159Z,7.07
2023-02-28T11:57:32.180Z,5.23
2023-02-28T11:59:52.502Z,7.93
2023-02-28T12:02:24.112Z,8.83
2023-02-28T12:04:43.733Z,5.83
2023-02-28T12:06:55.168Z,7.20
2023-02-28T12:09:32.328Z,6.10
2023-02-28T12:11:46.160Z,6.37
2023-02-28T12:13:48.161Z,7.67
2023-02-28T12:15:55.895Z,6.47
2023-02-28T12:18:19.580Z,9.90
2023-02-28T12:20:54.256Z,6.10
2023-02-28T12:23:10.818Z,8.40
2023-02-28T12:25:39.946Z,5.33
2023-02-28T12:27:45.240Z,10.53
2023-02-28T12:29:55.241Z,7.77
2023-02-28T12:32:06.015Z,5.83
2023-02-28T12:34:13.017Z,5.50
2023-02-28T12:36:20.092Z,8.33
2023-02-28T12:38:40.783Z,10.90
2023-02-28T12:40:50.547Z,7.40
2023-02-28T12:42:53.203Z,7.23
2023-02-28T12:45:24.466Z,8.07
2023-02-28T12:47:26.668Z,6.13
2023-02-28T12:49:48.018Z,6.60
2023-02-28T12:51:51.134Z,5.20
2023-02-28T12:54:24.381Z,7.23
2023-02-28T12:56:52.137Z,7.53
2023-02-28T12:59:01.071Z,7.13
2023-02-28T13:01:29.027Z,6.40
2023-02-28T13:03:38.593Z,8.33
2023-02-28T13:05:48.018Z,7.27
2023-02-28T13:07:56.038Z,9.07
2023-02-28T13:10:01.125Z,6.97
2023-02-28T13:12:14.159Z,6.80
2023-02-28T13:14:26.536Z,11.60
2023-02-28T13:16:28.669Z,10.80
2023-02-28T13:18:45.501Z,8.63
2023-02-28T13:20:52.316Z,8.10
2023-02-28T13:22:55.740Z,7.67
2023-02-28T13:24:57.911Z,6.10
2023-02-28T13:27:02.613Z,7.83
2023-02-28T13:29:19.473Z,6.40
2023-02-28T13:31:21.973Z,5.60
2023-02-28T13:33:35.674Z,8.93
2023-02-28T13:35:40.031Z,7.80
2023-02-28T13:37:50.826Z,7.20
2023-02-28T13:39:57.176Z,10.20
2023-02-28T13:42:40.530Z,6.30
2023-02-28T13:45:07.601Z,8.07
2023-02-28T13:47:23.223Z,6.20
2023-02-28T13:49:32.658Z,5.83
2023-02-28T13:51:40.805Z,7.37
2023-02-28T13:54:00.536Z,7.07
2023-02-28T13:56:08.781Z,6.93
2023-02-28T13:58:32.479Z,6.90
2023-02-28T14:01:11.121Z,7.97
2023-02-28T14:03:32.943Z,6.10
2023-02-28T14:05:35.879Z,9.27
2023-02-28T14:07:47.183Z,7.47
2023-02-28T14:10:01.125Z,7.13
2023-02-28T14:12:40.397Z,7.43
2023-02-28T14:14:42.380Z,6.67
2023-02-28T14:16:51.157Z,6.93
2023-02-28T14:19:04.776Z,7.70
2023-02-28T14:21:20.612Z,6.00
2023-02-28T14:23:28.154Z,7.37
2023-02-28T14:25:39.308Z,6.43
2023-02-28T14:27:44.099Z,9.30
2023-02-28T14:29:51.721Z,6.67
2023-02-28T14:32:04.976Z,5.67
2023-02-28T14:34:22.868Z,7.90
2023-02-28T14:36:29.108Z,7.60
2023-02-28T14:38:34.525Z,6.10
2023-02-28T14:40:37.105Z,7.93
2023-02-28T14:42:42.738Z,5.37
2023-02-28T14:44:56.210Z,5.70
2023-02-28T14:47:07.720Z,7.70
2023-02-28T14:49:37.714Z,5.53
2023-02-28T14:51:39.825Z,11.07
2023-02-28T14:53:41.928Z,9.23
2023-02-28T14:55:46.671Z,5.97
2023-02-28T14:57:57.746Z,6.00
2023-02-28T15:00:11.983Z,8.60
2023-02-28T15:02:25.122Z,8.77
2023-02-28T15:04:32.978Z,6.27
2023-02-28T15:06:34.999Z,7.57
2023-02-28T15:08:37.399Z,7.40
2023-02-28T15:11:01.620Z,8.10
2023-02-28T15:13:08.925Z,11.90
2023-02-28T15:15:18.191Z,17.03
2023-02-28T15:17:24.374Z,8.97
2023-02-28T15:19:31.965Z,12.83
2023-02-28T15:21:40.103Z,8.90
2023-02-28T15:23:45.242Z,11.13
2023-02-28T15:25:47.721Z,16.23
2023-02-28T15:27:56.716Z,13.00
2023-02-28T15:30:07.218Z,13.93
2023-02-28T15:32:25.564Z,8.33
2023-02-28T15:34:44.121Z,8.43
2023-02-28T15:36:46.584Z,7.13
2023-02-28T15:38:52.750Z,5.80
2023-02-28T15:40:56.812Z,6.40
2023-02-28T15:43:34.665Z,5.10
2023-02-28T15:45:42.137Z,12.37
2023-02-28T15:47:46.949Z,8.03
2023-02-28T15:50:13.557Z,9.37
2023-02-28T15:52:20.289Z,10.53
2023-02-28T15:54:30.627Z,6.60
2023-02-28T15:56:39.877Z,6.90
2023-02-28T15:58:42.984Z,6.13
2023-02-28T16:00:46.660Z,8.30
2023-02-28T16:02:48.959Z,8.10
2023-02-28T16:04:57.276Z,12.20
2023-02-28T16:06:59.300Z,8.43
2023-02-28T16:09:01.516Z,7.03
2023-02-28T16:11:03.643Z,11.37
2023-02-28T16:13:05.983Z,16.73
2023-02-28T16:15:29.626Z,12.27
2023-02-28T16:17:35.757Z,8.70
2023-02-28T16:19:37.904Z,14.63
2023-02-28T16:21:39.914Z,8.33
2023-02-28T16:23:42.638Z,7.70
2023-02-28T16:25:45.675Z,9.13
2023-02-28T16:27:51.678Z,9.00
2023-02-28T16:29:54.131Z,9.23
2023-02-28T16:31:56.733Z,9.80
2023-02-28T16:33:59.039Z,7.30
2023-02-28T16:36:01.912Z,11.53
2023-02-28T16:38:05.676Z,7.40
2023-02-28T16:40:18.686Z,8.27
2023-02-28T16:42:27.347Z,8.07
2023-02-28T16:44:31.287Z,10.10
2023-02-28T16:46:36.039Z,11.80
2023-02-28T16:48:38.342Z,10.63
2023-02-28T16:50:40.420Z,8.10
2023-02-28T16:52:42.611Z,17.13
2023-02-28T16:54:44.733Z,7.77
2023-02-28T16:56:48.395Z,6.40
2023-02-28T16:58:51.374Z,8.10
2023-02-28T17:00:53.627Z,8.13
2023-02-28T17:02:56.546Z,12.07
2023-02-28T17:04:58.743Z,9.63
2023-02-28T17:07:01.067Z,14.80
2023-02-28T17:09:03.255Z,9.47
2023-02-28T17:11:05.545Z,7.77
2023-02-28T17:13:14.992Z,8.77
2023-02-28T17:15:19.276Z,17.60
2023-02-28T17:17:22.719Z,10.50
2023-02-28T17:19:24.927Z,12.43
2023-02-28T17:21:27.638Z,10.57
2023-02-28T17:23:30.308Z,11.43
2023-02-28T17:25:32.425Z,15.30
2023-02-28T17:27:34.628Z,13.13
2023-02-28T17:29:36.817Z,9.30
2023-02-28T17:31:40.408Z,13.93
2023-02-28T17:33:43.851Z,14.10
2023-02-28T17:35:46.081Z,18.20
2023-02-28T17:37:48.385Z,13.50
2023-02-28T17:39:50.520Z,13.10
2023-02-28T17:41:53.208Z,14.20
2023-02-28T17:43:57.361Z,16.60
2023-02-28T17:45:59.707Z,82.60
2023-02-28T17:48:02.248Z,40.33
2023-02-28T17:50:05.123Z,37.23
2023-02-28T17:52:07.377Z,48.63
2023-02-28T17:54:10.020Z,36.03
2023-02-28T17:56:14.399Z,48.23
2023-02-28T17:58:17.003Z,188.77
2023-02-28T18:00:19.698Z,103.90
2023-02-28T18:02:21.930Z,62.93
2023-02-28T18:04:24.076Z,45.07
2023-02-28T18:06:36.224Z,29.20
2023-02-28T18:08:38.447Z,35.63
2023-02-28T18:10:40.611Z,41.27
2023-02-28T18:12:42.794Z,27.23
2023-02-28T18:14:46.243Z,31.67
2023-02-28T18:16:49.531Z,18.90
2023-02-28T18:18:51.658Z,25.03
2023-02-28T18:20:54.540Z,29.03
2023-02-28T18:22:56.721Z,25.80
2023-02-28T18:24:58.892Z,21.70
2023-02-28T18:27:01.105Z,20.03
2023-02-28T18:29:03.704Z,20.73
2023-02-28T18:31:07.608Z,19.93
2023-02-28T18:33:09.766Z,22.13
2023-02-28T18:35:12.068Z,20.47
2023-02-28T18:37:16.105Z,22.13
2023-02-28T18:39:18.584Z,17.53
2023-02-28T18:41:21.733Z,30.50
2023-02-28T18:43:24.114Z,25.43
2023-02-28T18:45:26.728Z,18.07
2023-02-28T18:47:28.910Z,18.77
2023-02-28T18:49:35.674Z,16.10
2023-02-28T18:51:38.079Z,19.87
2023-02-28T18:53:41.345Z,21.13
2023-02-28T18:55:43.767Z,20.13
2023-02-28T18:57:47.278Z,21.93
2023-02-28T18:59:49.569Z,20.07
2023-02-28T19:01:51.854Z,14.57
2023-02-28T19:03:54.220Z,15.77
2023-02-28T19:06:00.502Z,14.30
2023-02-28T19:08:03.395Z,19.23
2023-02-28T19:10:06.056Z,16.30
2023-02-28T19:12:08.260Z,14.30
2023-02-28T19:14:10.461Z,16.17
2023-02-28T19:16:14.634Z,16.20
2023-02-28T19:18:16.888Z,23.77
2023-02-28T19:20:19.841Z,22.30
2023-02-28T19:22:22.009Z,26.30
2023-02-28T19:24:24.179Z,19.57
2023-02-28T19:26:27.116Z,20.53
2023-02-28T19:28:30.813Z,18.13
2023-02-28T19:30:32.986Z,18.40
2023-02-28T19:32:35.295Z,14.70
2023-02-28T19:34:37.539Z,17.97
2023-02-28T19:36:39.773Z,15.90
2023-02-28T19:38:42.563Z,14.63
2023-02-28T19:40:44.780Z,17.60
2023-02-28T19:42:47.009Z,15.60
2023-02-28T19:44:49.522Z,15.63
2023-02-28T19:46:51.631Z,15.00
2023-02-28T19:48:54.666Z,15.83
2023-02-28T19:51:01.594Z,18.97
2023-02-28T19:53:04.258Z,17.17
2023-02-28T19:55:06.785Z,107.03
2023-02-28T19:57:08.928Z,63.57
2023-02-28T19:59:21.089Z,38.57
2023-02-28T20:01:24.102Z,37.90
2023-02-28T20:03:26.346Z,34.53
2023-02-28T20:05:28.527Z,34.90
2023-02-28T20:07:32.017Z,36.97
2023-02-28T20:09:34.328Z,39.83
2023-02-28T20:11:36.612Z,47.20
2023-02-28T20:13:39.065Z,41.87
2023-02-28T20:15:41.241Z,38.80
2023-02-28T20:17:44.454Z,38.80
2023-02-28T20:19:46.656Z,32.20
2023-02-28T20:21:48.779Z,32.97
2023-02-28T20:23:51.078Z,24.93
2023-02-28T20:25:53.411Z,21.40
2023-02-28T20:27:55.671Z,29.30
2023-02-28T20:29:57.891Z,21.80
2023-02-28T20:32:00.275Z,24.23
2023-02-28T20:34:02.410Z,22.07
2023-02-28T20:36:05.652Z,23.43
2023-02-28T20:38:07.878Z,18.77
2023-02-28T20:40:10.618Z,18.60
2023-02-28T20:42:12.748Z,17.20
2023-02-28T20:44:14.953Z,19.83
2023-02-28T20:46:17.178Z,16.17
2023-02-28T20:48:19.544Z,18.87
2023-02-28T20:50:21.710Z,15.97
2023-02-28T20:52:23.901Z,14.03
2023-02-28T20:54:26.208Z,14.17
2023-02-28T20:56:28.532Z,17.30
2023-02-28T20:58:35.783Z,15.23
2023-02-28T21:00:37.887Z,15.87
2023-02-28T21:02:40.052Z,21.30
2023-02-28T21:04:42.246Z,15.93
2023-02-28T21:06:46.422Z,16.90
2023-02-28T21:08:48.986Z,14.70
2023-02-28T21:10:51.150Z,12.50
2023-02-28T21:12:57.756Z,12.30
2023-02-28T21:15:00.142Z,18.57
2023-02-28T21:17:02.282Z,15.33
2023-02-28T21:19:04.778Z,11.80
2023-02-28T21:21:09.955Z,18.53
2023-02-28T21:23:12.116Z,14.80
2023-02-28T21:25:14.941Z,17.27
2023-02-28T21:27:17.235Z,20.13
2023-02-28T21:29:19.579Z,19.83
2023-02-28T21:31:24.079Z,15.77
2023-02-28T21:33:26.192Z,19.00
2023-02-28T21:35:28.358Z,19.33
2023-02-28T21:37:30.684Z,15.17
2023-02-28T21:39:32.764Z,18.37
2023-02-28T21:41:35.379Z,11.73
2023-02-28T21:43:37.788Z,15.37
2023-02-28T21:45:40.317Z,13.73
2023-02-28T21:47:42.440Z,16.70
2023-02-28T21:49:44.552Z,17.60
2023-02-28T21:51:46.708Z,14.40
2023-02-28T21:53:49.115Z,15.67
2023-02-28T21:55:51.251Z,21.03
2023-02-28T21:57:53.409Z,16.50
2023-02-28T21:59:55.619Z,17.40
2023-02-28T22:01:58.071Z,19.07
2023-02-28T22:04:00.864Z,20.73
2023-02-28T22:06:12.643Z,22.10
2023-02-28T22:08:14.795Z,20.07
2023-02-28T22:10:17.178Z,17.23
2023-02-28T22:12:19.610Z,19.13
2023-02-28T22:14:21.837Z,20.77
2023-02-28T22:16:26.001Z,18.43
2023-02-28T22:18:27.996Z,19.40
2023-02-28T22:20:30.305Z,21.00
2023-02-28T22:22:32.322Z,15.13
2023-02-28T22:24:34.356Z,15.40
2023-02-28T22:26:37.098Z,17.97
2023-02-28T22:28:39.320Z,15.83
2023-02-28T22:30:41.376Z,16.70
2023-02-28T22:32:43.428Z,21.80
2023-02-28T22:34:45.432Z,22.77
2023-02-28T22:36:47.444Z,21.57
2023-02-28T22:38:50.921Z,16.77
2023-02-28T22:40:56.889Z,18.17
2023-02-28T22:42:59.272Z,19.60
2023-02-28T22:45:01.287Z,18.40
2023-02-28T22:47:03.364Z,17.90
2023-02-28T22:49:06.046Z,20.33
2023-02-28T22:51:15.979Z,19.23
2023-02-28T22:53:17.953Z,16.57
2023-02-28T22:55:19.942Z,22.50
2023-02-28T22:57:22.029Z,19.90
2023-02-28T22:59:24.179Z,19.10
2023-02-28T23:01:29.048Z,20.57
2023-02-28T23:03:31.109Z,24.70
2023-02-28T23:05:33.082Z,22.07
2023-02-28T23:07:35.083Z,17.40
2023-02-28T23:09:37.627Z,21.17
2023-02-28T23:11:43.090Z,19.20
2023-02-28T23:13:58.553Z,20.80
2023-02-28T23:16:00.759Z,21.40
2023-02-28T23:18:02.932Z,22.57
2023-02-28T23:20:05.435Z,24.37
2023-02-28T23:22:07.517Z,23.00
2023-02-28T23:24:11.025Z,26.90
2023-02-28T23:26:13.026Z,25.27
2023-02-28T23:28:15.001Z,22.70
2023-02-28T23:30:17.529Z,21.70
2023-02-28T23:32:19.600Z,25.93
2023-02-28T23:34:28.025Z,20.90
2023-02-28T23:36:30.309Z,23.00
2023-02-28T23:38:33.336Z,22.50
2023-02-28T23:40:35.286Z,24.00
2023-02-28T23:42:37.328Z,19.13
2023-02-28T23:44:39.514Z,23.87
2023-02-28T23:46:41.508Z,21.17
2023-02-28T23:48:43.548Z,26.27
2023-02-28T23:50:45.639Z,25.67
2023-02-28T23:52:47.996Z,31.17
2023-02-28T23:54:50.095Z,26.63
2023-02-28T23:56:52.170Z,30.83
2023-02-28T23:58:54.821Z,30.60
